sensor_id;sensor_type;location;lat;lon;timestamp;P1;durP1;ratioP1;P2;durP2;ratioP2
21731;SDS011;11028;51.156;17.130;2023-02-27T00:06:23;16.98;;;6.90;;
21731;SDS011;11028;51.156;17.130;2023-02-27T00:13:41;13.93;;;6.13;;
21731;SDS011;11028;51.156;17.130;2023-02-27T00:21:01;15.52;;;7.05;;
21731;SDS011;11028;51.156;17.130;2023-02-27T00:28:19;18.10;;;7.13;;
21731;SDS011;11028;51.156;17.130;2023-02-27T00:35:38;14.43;;;5.63;;
21731;SDS011;11028;51.156;17.130;2023-02-27T00:42:58;17.83;;;6.40;;
21731;SDS011;11028;51.156;17.130;2023-02-27T00:50:18;15.90;;;6.65;;
21731;SDS011;11028;51.156;17.130;2023-02-27T00:57:36;15.57;;;6.40;;
21731;SDS011;11028;51.156;17.130;2023-02-27T01:04:56;13.60;;;5.88;;
21731;SDS011;11028;51.156;17.130;2023-02-27T01:12:14;18.45;;;6.40;;
21731;SDS011;11028;51.156;17.130;2023-02-27T01:19:33;16.35;;;5.80;;
21731;SDS011;11028;51.156;17.130;2023-02-27T01:26:55;13.43;;;5.40;;
21731;SDS011;11028;51.156;17.130;2023-02-27T01:34:13;11.10;;;5.38;;
21731;SDS011;11028;51.156;17.130;2023-02-27T01:41:31;13.38;;;5.40;;
21731;SDS011;11028;51.156;17.130;2023-02-27T01:48:54;12.10;;;4.78;;
21731;SDS011;11028;51.156;17.130;2023-02-27T01:56:17;13.15;;;4.50;;
21731;SDS011;11028;51.156;17.130;2023-02-27T02:03:41;13.82;;;5.10;;
21731;SDS011;11028;51.156;17.130;2023-02-27T02:11:05;11.57;;;4.80;;
21731;SDS011;11028;51.156;17.130;2023-02-27T02:18:27;13.63;;;4.53;;
21731;SDS011;11028;51.156;17.130;2023-02-27T02:26:07;10.45;;;4.80;;
21731;SDS011;11028;51.156;17.130;2023-02-27T02:41:36;11.57;;;4.97;;
21731;SDS011;11028;51.156;17.130;2023-02-27T02:49:04;10.73;;;4.95;;
21731;SDS011;11028;51.156;17.130;2023-02-27T02:56:28;10.18;;;4.72;;
21731;SDS011;11028;51.156;17.130;2023-02-27T03:03:50;12.77;;;4.10;;
21731;SDS011;11028;51.156;17.130;2023-02-27T03:11:11;13.38;;;5.03;;
21731;SDS011;11028;51.156;17.130;2023-02-27T03:18:30;9.27;;;4.32;;
21731;SDS011;11028;51.156;17.130;2023-02-27T03:25:52;7.80;;;4.05;;
21731;SDS011;11028;51.156;17.130;2023-02-27T03:33:16;12.25;;;4.97;;
21731;SDS011;11028;51.156;17.130;2023-02-27T03:40:38;13.88;;;4.10;;
21731;SDS011;11028;51.156;17.130;2023-02-27T03:48:10;11.48;;;4.57;;
21731;SDS011;11028;51.156;17.130;2023-02-27T03:55:29;12.07;;;4.50;;
21731;SDS011;11028;51.156;17.130;2023-02-27T04:02:50;9.60;;;4.05;;
21731;SDS011;11028;51.156;17.130;2023-02-27T04:10:16;10.33;;;3.33;;
21731;SDS011;11028;51.156;17.130;2023-02-27T04:17:39;7.72;;;3.15;;
21731;SDS011;11028;51.156;17.130;2023-02-27T04:25:05;7.80;;;3.20;;
21731;SDS011;11028;51.156;17.130;2023-02-27T04:32:34;9.55;;;4.03;;
21731;SDS011;11028;51.156;17.130;2023-02-27T04:47:14;10.55;;;6.25;;
21731;SDS011;11028;51.156;17.130;2023-02-27T04:54:35;14.65;;;6.07;;
21731;SDS011;11028;51.156;17.130;2023-02-27T05:02:04;11.95;;;5.75;;
21731;SDS011;11028;51.156;17.130;2023-02-27T05:09:27;11.18;;;4.75;;
21731;SDS011;11028;51.156;17.130;2023-02-27T05:16:50;10.97;;;4.87;;
21731;SDS011;11028;51.156;17.130;2023-02-27T05:24:11;8.50;;;4.18;;
21731;SDS011;11028;51.156;17.130;2023-02-27T05:31:34;10.82;;;4.68;;
21731;SDS011;11028;51.156;17.130;2023-02-27T05:38:58;8.73;;;4.50;;
21731;SDS011;11028;51.156;17.130;2023-02-27T05:46:20;19.30;;;10.40;;
21731;SDS011;11028;51.156;17.130;2023-02-27T05:53:41;19.00;;;10.05;;
21731;SDS011;11028;51.156;17.130;2023-02-27T06:01:05;15.30;;;5.50;;
21731;SDS011;11028;51.156;17.130;2023-02-27T06:08:25;23.13;;;10.93;;
21731;SDS011;11028;51.156;17.130;2023-02-27T06:15:43;50.50;;;28.48;;
21731;SDS011;11028;51.156;17.130;2023-02-27T06:23:04;12.02;;;5.95;;
21731;SDS011;11028;51.156;17.130;2023-02-27T06:30:22;9.65;;;4.72;;
21731;SDS011;11028;51.156;17.130;2023-02-27T06:37:41;13.80;;;4.25;;
21731;SDS011;11028;51.156;17.130;2023-02-27T06:45:01;10.10;;;4.43;;
21731;SDS011;11028;51.156;17.130;2023-02-27T06:52:19;11.57;;;4.60;;
21731;SDS011;11028;51.156;17.130;2023-02-27T06:59:38;7.70;;;3.78;;
21731;SDS011;11028;51.156;17.130;2023-02-27T07:06:57;9.35;;;4.75;;
21731;SDS011;11028;51.156;17.130;2023-02-27T07:14:36;13.55;;;5.30;;
21731;SDS011;11028;51.156;17.130;2023-02-27T07:21:54;10.02;;;4.22;;
21731;SDS011;11028;51.156;17.130;2023-02-27T07:29:14;14.15;;;6.75;;
21731;SDS011;11028;51.156;17.130;2023-02-27T07:36:32;11.32;;;4.80;;
21731;SDS011;11028;51.156;17.130;2023-02-27T07:43:50;8.60;;;4.20;;
21731;SDS011;11028;51.156;17.130;2023-02-27T07:51:10;11.20;;;4.65;;
21731;SDS011;11028;51.156;17.130;2023-02-27T07:58:29;8.38;;;4.10;;
21731;SDS011;11028;51.156;17.130;2023-02-27T08:05:50;13.30;;;3.78;;
21731;SDS011;11028;51.156;17.130;2023-02-27T08:13:10;18.15;;;4.88;;
21731;SDS011;11028;51.156;17.130;2023-02-27T08:20:29;17.60;;;7.40;;
21731;SDS011;11028;51.156;17.130;2023-02-27T08:27:47;10.27;;;4.78;;
21731;SDS011;11028;51.156;17.130;2023-02-27T08:35:08;10.20;;;4.32;;
21731;SDS011;11028;51.156;17.130;2023-02-27T08:42:26;13.25;;;5.20;;
21731;SDS011;11028;51.156;17.130;2023-02-27T08:49:44;15.05;;;5.15;;
21731;SDS011;11028;51.156;17.130;2023-02-27T08:57:04;9.10;;;3.88;;
21731;SDS011;11028;51.156;17.130;2023-02-27T09:04:22;6.60;;;3.22;;
21731;SDS011;11028;51.156;17.130;2023-02-27T09:11:43;8.95;;;4.05;;
21731;SDS011;11028;51.156;17.130;2023-02-27T09:19:03;6.90;;;3.40;;
21731;SDS011;11028;51.156;17.130;2023-02-27T09:26:22;8.23;;;4.57;;
21731;SDS011;11028;51.156;17.130;2023-02-27T09:33:59;8.57;;;4.18;;
21731;SDS011;11028;51.156;17.130;2023-02-27T09:41:33;9.23;;;4.68;;
21731;SDS011;11028;51.156;17.130;2023-02-27T09:48:57;13.35;;;5.35;;
21731;SDS011;11028;51.156;17.130;2023-02-27T09:56:18;8.90;;;4.90;;
21731;SDS011;11028;51.156;17.130;2023-02-27T10:03:50;8.45;;;4.40;;
21731;SDS011;11028;51.156;17.130;2023-02-27T10:11:16;8.77;;;4.65;;
21731;SDS011;11028;51.156;17.130;2023-02-27T10:18:40;7.90;;;3.90;;
21731;SDS011;11028;51.156;17.130;2023-02-27T10:26:05;8.57;;;4.18;;
21731;SDS011;11028;51.156;17.130;2023-02-27T10:33:26;7.93;;;4.10;;
21731;SDS011;11028;51.156;17.130;2023-02-27T10:40:48;8.75;;;3.42;;
21731;SDS011;11028;51.156;17.130;2023-02-27T10:48:08;6.10;;;3.40;;
21731;SDS011;11028;51.156;17.130;2023-02-27T10:55:28;7.65;;;3.28;;
21731;SDS011;11028;51.156;17.130;2023-02-27T11:02:48;7.07;;;3.25;;
21731;SDS011;11028;51.156;17.130;2023-02-27T11:10:16;7.32;;;3.17;;
21731;SDS011;11028;51.156;17.130;2023-02-27T11:17:39;5.80;;;2.78;;
21731;SDS011;11028;51.156;17.130;2023-02-27T11:25:19;4.93;;;2.67;;
21731;SDS011;11028;51.156;17.130;2023-02-27T11:32:40;7.80;;;3.67;;
21731;SDS011;11028;51.156;17.130;2023-02-27T11:40:02;8.57;;;3.25;;
21731;SDS011;11028;51.156;17.130;2023-02-27T11:47:31;3.20;;;2.30;;
21731;SDS011;11028;51.156;17.130;2023-02-27T11:54:51;7.63;;;2.90;;
21731;SDS011;11028;51.156;17.130;2023-02-27T12:02:14;5.55;;;3.05;;
21731;SDS011;11028;51.156;17.130;2023-02-27T12:11:22;8.20;;;3.95;;
21731;SDS011;11028;51.156;17.130;2023-02-27T12:18:46;10.82;;;4.57;;
21731;SDS011;11028;51.156;17.130;2023-02-27T12:26:07;7.18;;;3.95;;
21731;SDS011;11028;51.156;17.130;2023-02-27T12:33:33;9.77;;;3.72;;
21731;SDS011;11028;51.156;17.130;2023-02-27T12:40:57;4.85;;;2.28;;
21731;SDS011;11028;51.156;17.130;2023-02-27T12:48:24;1.65;;;1.30;;
21731;SDS011;11028;51.156;17.130;2023-02-27T12:56:02;2.83;;;2.05;;
21731;SDS011;11028;51.156;17.130;2023-02-27T13:03:22;5.28;;;2.85;;
21731;SDS011;11028;51.156;17.130;2023-02-27T13:10:47;7.63;;;3.70;;
21731;SDS011;11028;51.156;17.130;2023-02-27T13:18:07;12.43;;;5.72;;
21731;SDS011;11028;51.156;17.130;2023-02-27T13:25:34;9.00;;;4.10;;
21731;SDS011;11028;51.156;17.130;2023-02-27T13:32:57;11.35;;;5.20;;
21731;SDS011;11028;51.156;17.130;2023-02-27T13:40:29;6.95;;;4.70;;
21731;SDS011;11028;51.156;17.130;2023-02-27T13:47:52;11.63;;;5.75;;
21731;SDS011;11028;51.156;17.130;2023-02-27T13:55:24;15.13;;;7.53;;
21731;SDS011;11028;51.156;17.130;2023-02-27T14:02:44;12.63;;;6.53;;
21731;SDS011;11028;51.156;17.130;2023-02-27T14:11:27;9.02;;;5.55;;
21731;SDS011;11028;51.156;17.130;2023-02-27T14:18:55;11.73;;;5.63;;
21731;SDS011;11028;51.156;17.130;2023-02-27T14:26:16;12.68;;;6.75;;
21731;SDS011;11028;51.156;17.130;2023-02-27T14:33:40;20.73;;;9.18;;
21731;SDS011;11028;51.156;17.130;2023-02-27T14:41:10;12.35;;;6.13;;
21731;SDS011;11028;51.156;17.130;2023-02-27T14:48:33;8.70;;;4.00;;
21731;SDS011;11028;51.156;17.130;2023-02-27T14:55:55;10.27;;;4.93;;
21731;SDS011;11028;51.156;17.130;2023-02-27T15:03:18;9.32;;;4.97;;
21731;SDS011;11028;51.156;17.130;2023-02-27T15:10:39;10.82;;;5.80;;
21731;SDS011;11028;51.156;17.130;2023-02-27T15:18:00;11.90;;;7.03;;
21731;SDS011;11028;51.156;17.130;2023-02-27T15:25:26;9.88;;;5.03;;
21731;SDS011;11028;51.156;17.130;2023-02-27T15:32:46;7.55;;;3.35;;
21731;SDS011;11028;51.156;17.130;2023-02-27T15:40:06;7.10;;;3.13;;
21731;SDS011;11028;51.156;17.130;2023-02-27T15:47:32;5.32;;;3.05;;
21731;SDS011;11028;51.156;17.130;2023-02-27T15:54:51;6.05;;;3.67;;
21731;SDS011;11028;51.156;17.130;2023-02-27T16:02:14;10.65;;;4.22;;
21731;SDS011;11028;51.156;17.130;2023-02-27T16:09:36;7.43;;;4.40;;
21731;SDS011;11028;51.156;17.130;2023-02-27T16:16:55;11.80;;;5.20;;
21731;SDS011;11028;51.156;17.130;2023-02-27T16:24:18;17.13;;;6.30;;
21731;SDS011;11028;51.156;17.130;2023-02-27T16:31:37;11.73;;;5.10;;
21731;SDS011;11028;51.156;17.130;2023-02-27T16:38:57;10.35;;;5.78;;
21731;SDS011;11028;51.156;17.130;2023-02-27T16:46:17;13.20;;;6.38;;
21731;SDS011;11028;51.156;17.130;2023-02-27T16:53:39;14.70;;;6.45;;
21731;SDS011;11028;51.156;17.130;2023-02-27T17:00:57;16.60;;;7.55;;
21731;SDS011;11028;51.156;17.130;2023-02-27T17:08:17;18.65;;;8.48;;
21731;SDS011;11028;51.156;17.130;2023-02-27T17:15:38;19.93;;;8.47;;
21731;SDS011;11028;51.156;17.130;2023-02-27T17:22:56;19.15;;;9.07;;
21731;SDS011;11028;51.156;17.130;2023-02-27T17:30:16;14.50;;;7.63;;
21731;SDS011;11028;51.156;17.130;2023-02-27T17:37:35;14.73;;;7.55;;
21731;SDS011;11028;51.156;17.130;2023-02-27T17:44:53;14.15;;;7.07;;
21731;SDS011;11028;51.156;17.130;2023-02-27T17:52:13;18.77;;;8.90;;
21731;SDS011;11028;51.156;17.130;2023-02-27T17:59:32;22.63;;;9.32;;
21731;SDS011;11028;51.156;17.130;2023-02-27T18:06:51;20.70;;;8.90;;
21731;SDS011;11028;51.156;17.130;2023-02-27T18:14:11;43.55;;;15.95;;
21731;SDS011;11028;51.156;17.130;2023-02-27T18:21:30;29.23;;;12.88;;
21731;SDS011;11028;51.156;17.130;2023-02-27T18:28:49;25.27;;;10.27;;
21731;SDS011;11028;51.156;17.130;2023-02-27T18:36:10;17.25;;;7.63;;
21731;SDS011;11028;51.156;17.130;2023-02-27T18:43:29;18.42;;;7.95;;
21731;SDS011;11028;51.156;17.130;2023-02-27T18:50:48;17.40;;;8.77;;
21731;SDS011;11028;51.156;17.130;2023-02-27T18:58:08;20.58;;;8.55;;
21731;SDS011;11028;51.156;17.130;2023-02-27T19:05:27;23.65;;;9.50;;
21731;SDS011;11028;51.156;17.130;2023-02-27T19:12:48;26.50;;;10.70;;
21731;SDS011;11028;51.156;17.130;2023-02-27T19:20:09;25.40;;;11.45;;
21731;SDS011;11028;51.156;17.130;2023-02-27T19:27:32;25.55;;;11.38;;
21731;SDS011;11028;51.156;17.130;2023-02-27T19:34:50;28.77;;;11.02;;
21731;SDS011;11028;51.156;17.130;2023-02-27T19:42:10;25.02;;;11.45;;
21731;SDS011;11028;51.156;17.130;2023-02-27T19:49:28;29.98;;;12.80;;
21731;SDS011;11028;51.156;17.130;2023-02-27T19:56:46;31.73;;;13.15;;
21731;SDS011;11028;51.156;17.130;2023-02-27T20:04:06;31.38;;;13.40;;
21731;SDS011;11028;51.156;17.130;2023-02-27T20:11:27;36.38;;;15.23;;
21731;SDS011;11028;51.156;17.130;2023-02-27T20:18:46;47.95;;;17.48;;
21731;SDS011;11028;51.156;17.130;2023-02-27T20:26:15;44.05;;;17.65;;
21731;SDS011;11028;51.156;17.130;2023-02-27T20:33:35;41.92;;;16.70;;
21731;SDS011;11028;51.156;17.130;2023-02-27T20:40:55;40.45;;;17.25;;
21731;SDS011;11028;51.156;17.130;2023-02-27T20:48:15;51.97;;;22.52;;
21731;SDS011;11028;51.156;17.130;2023-02-27T20:55:33;48.22;;;17.15;;
21731;SDS011;11028;51.156;17.130;2023-02-27T21:02:51;40.53;;;16.80;;
21731;SDS011;11028;51.156;17.130;2023-02-27T21:10:12;103.72;;;38.83;;
21731;SDS011;11028;51.156;17.130;2023-02-27T21:17:31;50.97;;;20.20;;
21731;SDS011;11028;51.156;17.130;2023-02-27T21:24:49;62.92;;;25.90;;
21731;SDS011;11028;51.156;17.130;2023-02-27T21:32:10;62.63;;;26.23;;
21731;SDS011;11028;51.156;17.130;2023-02-27T21:39:29;51.10;;;21.38;;
21731;SDS011;11028;51.156;17.130;2023-02-27T21:46:48;55.55;;;21.60;;
21731;SDS011;11028;51.156;17.130;2023-02-27T21:54:10;44.75;;;17.55;;
21731;SDS011;11028;51.156;17.130;2023-02-27T22:01:29;46.25;;;18.83;;
21731;SDS011;11028;51.156;17.130;2023-02-27T22:08:52;37.22;;;15.65;;
21731;SDS011;11028;51.156;17.130;2023-02-27T22:16:12;38.93;;;16.80;;
21731;SDS011;11028;51.156;17.130;2023-02-27T22:23:31;43.55;;;16.85;;
21731;SDS011;11028;51.156;17.130;2023-02-27T22:30:49;37.38;;;17.80;;
21731;SDS011;11028;51.156;17.130;2023-02-27T22:38:13;67.93;;;23.93;;
21731;SDS011;11028;51.156;17.130;2023-02-27T22:45:31;60.22;;;24.70;;
21731;SDS011;11028;51.156;17.130;2023-02-27T22:52:49;73.65;;;28.98;;
21731;SDS011;11028;51.156;17.130;2023-02-27T23:00:10;70.68;;;28.40;;
21731;SDS011;11028;51.156;17.130;2023-02-27T23:07:30;72.87;;;27.20;;
21731;SDS011;11028;51.156;17.130;2023-02-27T23:14:49;59.65;;;23.98;;
21731;SDS011;11028;51.156;17.130;2023-02-27T23:22:08;51.88;;;20.67;;
21731;SDS011;11028;51.156;17.130;2023-02-27T23:29:27;45.95;;;20.13;;
21731;SDS011;11028;51.156;17.130;2023-02-27T23:36:45;47.95;;;19.50;;
21731;SDS011;11028;51.156;17.130;2023-02-27T23:44:04;48.38;;;20.65;;
21731;SDS011;11028;51.156;17.130;2023-02-27T23:51:40;51.08;;;19.85;;
21731;SDS011;11028;51.156;17.130;2023-02-27T23:59:00;54.60;;;19.73;;
